MHRO

Details ICAO MHRO (RTB)
Name Roatan
Region Honduras
Timezone Unknown
Plans Departing 128
Arriving 138
Stats Elevation 18 ft / 5 m (AMSL)
Location 16.316600° -86.523400°
Runways 1
Magnetic Variation 1.597° W
Sunrise 2019-04-26 11:25:23 UTC / 2019-04-26 11:25:23 Local
Sunset 2019-04-27 00:04:44 UTC / 2019-04-27 00:04:44 Local
Advertisement - Login to hide

Runways

ID Width Length Bearing (true/mag) Surface Threshold Overrun Markings Lighting
07 148 ft / 45 m 7,672 ft / 2,338 m 65.02° / 66.62° ASPHALT 518 ft / 158 m 0 ft / 0 m PREC-APP EDGE THRESHOLD
25 148 ft / 45 m 7,672 ft / 2,338 m 245.02° / 246.62° ASPHALT 0 ft / 0 m 0 ft / 0 m PREC-APP EDGE THRESHOLD

Map

Weather


0- 5 10 15 20 25 30 35+ Temperature / °C

Clouds and Precipitation
Forecast for 2019-04-26 12:00 UTC. Updated 4 hours ago

Ground ~20,000 ft ~40,000 ft Winds

METAR

MHRO 261300Z 12014KT CAVOK 28/24 Q1012 A2989 NOSIG

TAF

TAF TAF MHRO 261045Z 2612/2712 09020KT 9999 FEW022 TX30/2619Z TN26/2712Z BECMG 2700/2702 SCT024

Frequencies

Tower 118.10 MHz Roatan Tower
Ground 121.60 MHz Roatan Ground
Warning: Do not use this data for real-world aviation or navigation. No guarantee of current accuracy is given.